createdAt,value
2022-11-27T00:01:02.437Z,96223.25
2022-11-27T00:03:00.920Z,96224.97
2022-11-27T00:04:59.164Z,96227.69
2022-11-27T00:06:57.264Z,96232.97
2022-11-27T00:08:57.384Z,96231.28
2022-11-27T00:10:55.620Z,96231.16
2022-11-27T00:12:55.593Z,96232.00
2022-11-27T00:14:55.704Z,96234.59
2022-11-27T00:16:54.044Z,96231.06
2022-11-27T00:18:52.588Z,96225.91
2022-11-27T00:20:50.757Z,96232.91
2022-11-27T00:22:48.919Z,96244.94
2022-11-27T00:24:47.218Z,96238.06
2022-11-27T00:26:46.793Z,96230.41
2022-11-27T00:28:46.760Z,96235.56
2022-11-27T00:30:45.358Z,96240.75
2022-11-27T00:32:44.164Z,96239.97
2022-11-27T00:34:42.798Z,96246.00
2022-11-27T00:36:46.652Z,96247.59
2022-11-27T00:38:46.492Z,96255.34
2022-11-27T00:40:44.808Z,96245.00
2022-11-27T00:42:42.989Z,96245.91
2022-11-27T00:44:42.663Z,96238.22
2022-11-27T00:46:43.549Z,96245.22
2022-11-27T00:48:48.292Z,96240.19
2022-11-27T00:50:46.640Z,96244.53
2022-11-27T00:52:44.973Z,96247.94
2022-11-27T00:54:43.262Z,96247.31
2022-11-27T00:56:41.461Z,96246.66
2022-11-27T00:58:39.797Z,96252.78
2022-11-27T01:00:39.401Z,96254.59
2022-11-27T01:02:37.679Z,96252.91
2022-11-27T01:04:35.907Z,96246.78
2022-11-27T01:06:34.277Z,96247.59
2022-11-27T01:08:32.838Z,96244.06
2022-11-27T01:10:31.065Z,96260.53
2022-11-27T01:12:29.248Z,96248.38
2022-11-27T01:14:27.605Z,96253.28
2022-11-27T01:16:28.962Z,96236.00
2022-11-27T01:18:27.321Z,96231.47
2022-11-27T01:20:25.523Z,96227.03
2022-11-27T01:22:23.679Z,96239.00
2022-11-27T01:24:21.899Z,96229.56
2022-11-27T01:26:20.592Z,96231.28
2022-11-27T01:28:18.732Z,96227.72
2022-11-27T01:30:17.134Z,96227.78
2022-11-27T01:32:16.988Z,96219.88
2022-11-27T01:34:17.536Z,96226.72
2022-11-27T01:36:17.207Z,96226.75
2022-11-27T01:38:15.423Z,96217.31
2022-11-27T01:40:14.045Z,96218.00
2022-11-27T01:42:12.770Z,96213.66
2022-11-27T01:44:48.368Z,96217.94
2022-11-27T01:46:49.678Z,96215.31
2022-11-27T01:48:49.704Z,96213.59
2022-11-27T01:50:47.809Z,96217.13
2022-11-27T01:52:51.580Z,96207.59
2022-11-27T01:54:56.285Z,96218.44
2022-11-27T01:57:00.559Z,96211.16
2022-11-27T01:59:00.431Z,96209.72
2022-11-27T02:00:59.624Z,96206.44
2022-11-27T02:02:57.912Z,96212.31
2022-11-27T02:04:57.616Z,96217.69
2022-11-27T02:06:58.589Z,96213.28
2022-11-27T02:08:57.587Z,96214.97
2022-11-27T02:11:04.129Z,96213.28
2022-11-27T02:13:06.896Z,96211.59
2022-11-27T02:15:11.961Z,96210.00
2022-11-27T02:17:18.004Z,96210.88
2022-11-27T02:19:41.391Z,96212.44
2022-11-27T02:21:48.422Z,96212.38
2022-11-27T02:24:30.714Z,96214.09
2022-11-27T02:27:02.325Z,96217.47
2022-11-27T02:29:05.572Z,96212.31
2022-11-27T02:31:08.847Z,96218.44
2022-11-27T02:33:10.479Z,96214.81
2022-11-27T02:35:16.252Z,96220.03
2022-11-27T02:37:20.805Z,96218.47
2022-11-27T02:39:24.435Z,96217.69
2022-11-27T02:41:27.418Z,96218.59
2022-11-27T02:43:31.800Z,96222.94
2022-11-27T02:45:35.493Z,96215.09
2022-11-27T02:47:34.220Z,96219.28
2022-11-27T02:49:34.808Z,96221.88
2022-11-27T02:51:39.270Z,96222.84
2022-11-27T02:53:41.331Z,96228.03
2022-11-27T02:55:41.660Z,96224.53
2022-11-27T02:57:41.862Z,96224.38
2022-11-27T02:59:43.063Z,96231.00
2022-11-27T03:01:46.633Z,96228.50
2022-11-27T03:03:48.724Z,96220.88
2022-11-27T03:05:50.807Z,96215.78
2022-11-27T03:07:54.325Z,96219.28
2022-11-27T03:09:58.014Z,96221.06
2022-11-27T03:11:58.119Z,96232.13
2022-11-27T03:14:00.663Z,96238.09
2022-11-27T03:16:07.100Z,96235.66
2022-11-27T03:18:13.796Z,96232.25
2022-11-27T03:20:17.094Z,96228.91
2022-11-27T03:22:16.567Z,96235.72
2022-11-27T03:24:15.383Z,96238.25
2022-11-27T03:26:13.608Z,96238.94
2022-11-27T03:28:14.020Z,96237.31
2022-11-27T03:30:13.855Z,96235.47
2022-11-27T03:32:12.284Z,96232.97
2022-11-27T03:34:12.468Z,96235.16
2022-11-27T03:36:14.374Z,96232.38
2022-11-27T03:38:12.766Z,96228.84
2022-11-27T03:40:12.858Z,96231.28
2022-11-27T03:42:20.274Z,96233.88
2022-11-27T03:44:26.301Z,96233.72
2022-11-27T03:46:33.963Z,96237.59
2022-11-27T03:48:39.494Z,96222.31
2022-11-27T03:50:51.093Z,96225.75
2022-11-27T03:52:56.033Z,96227.56
2022-11-27T03:55:02.585Z,96213.81
2022-11-27T03:57:07.878Z,96221.59
2022-11-27T03:59:11.683Z,96229.44
2022-11-27T04:01:14.362Z,96222.56
2022-11-27T04:03:14.575Z,96223.31
2022-11-27T04:05:16.185Z,96216.28
2022-11-27T04:07:18.519Z,96220.78
2022-11-27T04:09:16.756Z,96219.06
2022-11-27T04:11:15.355Z,96216.59
2022-11-27T04:13:13.814Z,96213.13
2022-11-27T04:15:13.091Z,96205.28
2022-11-27T04:17:11.297Z,96201.78
2022-11-27T04:19:09.642Z,96215.56
2022-11-27T04:21:07.759Z,96209.53
2022-11-27T04:23:07.442Z,96209.63
2022-11-27T04:25:09.581Z,96211.47
2022-11-27T04:27:07.793Z,96209.00
2022-11-27T04:29:06.115Z,96217.47
2022-11-27T04:31:04.488Z,96214.09
2022-11-27T04:33:02.762Z,96213.38
2022-11-27T04:35:01.454Z,96215.09
2022-11-27T04:37:00.313Z,96212.50
2022-11-27T04:39:00.077Z,96216.00
2022-11-27T04:40:58.496Z,96220.28
2022-11-27T04:42:56.670Z,96236.56
2022-11-27T04:44:55.093Z,96226.28
2022-11-27T04:46:53.284Z,96230.63
2022-11-27T04:48:51.637Z,96228.78
2022-11-27T04:50:49.902Z,96240.00
2022-11-27T04:52:48.138Z,96233.09
2022-11-27T04:54:47.794Z,96233.75
2022-11-27T04:56:45.988Z,96240.50
2022-11-27T04:58:44.080Z,96236.25
2022-11-27T05:00:42.473Z,96229.22
2022-11-27T05:02:40.761Z,96234.34
2022-11-27T05:04:39.269Z,96230.94
2022-11-27T05:06:37.663Z,96223.09
2022-11-27T05:08:35.945Z,96228.16
2022-11-27T05:10:35.570Z,96223.00
2022-11-27T05:12:33.934Z,96217.91
2022-11-27T05:14:32.310Z,96229.00
2022-11-27T05:16:30.711Z,96241.94
2022-11-27T05:18:28.904Z,96228.16
2022-11-27T05:20:27.221Z,96228.78
2022-11-27T05:22:25.501Z,96227.94
2022-11-27T05:24:25.285Z,96234.09
2022-11-27T05:26:24.904Z,96229.47
2022-11-27T05:28:26.596Z,96240.78
2022-11-27T05:30:25.579Z,96238.94
2022-11-27T05:32:23.913Z,96244.25
2022-11-27T05:34:22.411Z,96243.47
2022-11-27T05:36:21.132Z,96253.56
2022-11-27T05:38:19.292Z,96250.47
2022-11-27T05:40:17.717Z,96240.34
2022-11-27T05:42:17.418Z,96244.88
2022-11-27T05:44:16.458Z,96247.59
2022-11-27T05:46:16.667Z,96251.94
2022-11-27T05:48:14.852Z,96251.00
2022-11-27T05:50:13.223Z,96247.28
2022-11-27T05:52:11.363Z,96250.22
2022-11-27T05:54:09.659Z,96242.78
2022-11-27T05:56:09.898Z,96246.38
2022-11-27T05:58:09.525Z,96245.53
2022-11-27T06:00:09.536Z,96244.63
2022-11-27T06:02:07.853Z,96249.72
2022-11-27T06:04:06.342Z,96253.84
2022-11-27T06:06:08.071Z,96263.03
2022-11-27T06:08:06.151Z,96267.22
2022-11-27T06:10:04.684Z,96262.19
2022-11-27T06:12:02.816Z,96263.88
2022-11-27T06:14:02.310Z,96267.22
2022-11-27T06:16:00.607Z,96262.03
2022-11-27T06:17:59.159Z,96260.41
2022-11-27T06:19:57.428Z,96258.66
2022-11-27T06:21:55.755Z,96264.69
2022-11-27T06:23:56.006Z,96274.00
2022-11-27T06:25:54.302Z,96279.84
2022-11-27T06:27:52.903Z,96267.81
2022-11-27T06:29:53.163Z,96274.56
2022-11-27T06:31:51.483Z,96266.75
2022-11-27T06:33:51.321Z,96266.66
2022-11-27T06:35:49.606Z,96262.97
2022-11-27T06:37:47.705Z,96261.03
2022-11-27T06:39:45.839Z,96272.91
2022-11-27T06:41:44.597Z,96276.25
2022-11-27T06:43:42.810Z,96271.84
2022-11-27T06:45:42.564Z,96265.63
2022-11-27T06:47:40.955Z,96271.75
2022-11-27T06:49:39.031Z,96274.84
2022-11-27T06:51:37.275Z,96273.13
2022-11-27T06:53:37.522Z,96264.34
2022-11-27T06:55:35.575Z,96272.94
2022-11-27T06:57:33.908Z,96267.25
2022-11-27T06:59:32.257Z,96263.50
2022-11-27T07:01:33.025Z,96271.31
2022-11-27T07:03:31.737Z,96271.38
2022-11-27T07:05:30.218Z,96265.19
2022-11-27T07:07:28.719Z,96278.53
2022-11-27T07:09:26.908Z,96269.84
2022-11-27T07:11:27.544Z,96267.69
2022-11-27T07:13:25.738Z,96263.97
2022-11-27T07:15:23.944Z,96269.75
2022-11-27T07:17:23.558Z,96265.09
2022-11-27T07:19:21.707Z,96259.25
2022-11-27T07:21:20.395Z,96268.56
2022-11-27T07:23:18.569Z,96255.31
2022-11-27T07:25:17.002Z,96252.56
2022-11-27T07:27:15.575Z,96256.78
2022-11-27T07:29:13.804Z,96265.28
2022-11-27T07:31:13.248Z,96261.03
2022-11-27T07:33:12.906Z,96262.72
2022-11-27T07:35:11.336Z,96271.41
2022-11-27T07:37:09.641Z,96261.88
2022-11-27T07:39:07.805Z,96260.91
2022-11-27T07:41:07.666Z,96250.84
2022-11-27T07:43:05.957Z,96251.22
2022-11-27T07:45:04.300Z,96259.00
2022-11-27T07:47:02.745Z,96259.88
2022-11-27T07:49:02.390Z,96257.47
2022-11-27T07:51:01.602Z,96255.22
2022-11-27T07:53:00.257Z,96249.88
2022-11-27T07:54:58.503Z,96247.72
2022-11-27T07:56:56.785Z,96255.75
2022-11-27T07:58:55.220Z,96254.03
2022-11-27T08:00:53.628Z,96256.44
2022-11-27T08:02:52.017Z,96250.16
2022-11-27T08:04:51.782Z,96251.53
2022-11-27T08:06:50.679Z,96252.38
2022-11-27T08:08:49.076Z,96249.53
2022-11-27T08:10:47.411Z,96252.34
2022-11-27T08:12:45.677Z,96256.13
2022-11-27T08:14:43.822Z,96258.50
2022-11-27T08:16:44.972Z,96243.56
2022-11-27T08:18:43.646Z,96257.16
2022-11-27T08:20:43.158Z,96249.84
2022-11-27T08:22:41.627Z,96258.06
2022-11-27T08:24:39.976Z,96256.22
2022-11-27T08:26:38.299Z,96256.50
2022-11-27T08:28:40.107Z,96256.72
2022-11-27T08:30:38.589Z,96250.13
2022-11-27T08:32:40.490Z,96249.00
2022-11-27T08:34:39.237Z,96245.47
2022-11-27T08:36:39.249Z,96251.53
2022-11-27T08:38:40.140Z,96250.88
2022-11-27T08:40:38.510Z,96253.28
2022-11-27T08:42:36.793Z,96246.78
2022-11-27T08:44:35.522Z,96243.09
2022-11-27T08:46:39.070Z,96240.44
2022-11-27T08:48:37.521Z,96244.78
2022-11-27T08:50:43.561Z,96245.28
2022-11-27T08:52:46.060Z,96239.97
2022-11-27T08:54:46.056Z,96233.28
2022-11-27T08:56:44.536Z,96230.34
2022-11-27T08:58:42.842Z,96228.13
2022-11-27T09:00:43.426Z,96224.31
2022-11-27T09:02:41.834Z,96227.47
2022-11-27T09:04:40.708Z,96227.47
2022-11-27T09:06:42.769Z,96228.19
2022-11-27T09:08:43.917Z,96219.03
2022-11-27T09:10:44.795Z,96221.06
2022-11-27T09:14:59.535Z,96222.75
2022-11-27T09:16:57.701Z,96219.69
2022-11-27T09:18:57.166Z,96220.13
2022-11-27T09:21:00.071Z,96220.72
2022-11-27T09:22:59.567Z,96211.63
2022-11-27T09:25:00.282Z,96213.63
2022-11-27T09:26:58.665Z,96207.97
2022-11-27T09:28:58.977Z,96205.13
2022-11-27T09:31:00.362Z,96207.50
2022-11-27T09:32:58.666Z,96203.00
2022-11-27T09:34:58.130Z,96206.22
2022-11-27T09:36:56.537Z,96209.41
2022-11-27T09:38:55.228Z,96198.00
2022-11-27T09:41:03.275Z,96200.41
2022-11-27T09:43:09.066Z,96200.63
2022-11-27T09:45:13.488Z,96194.81
2022-11-27T09:47:16.473Z,96188.22
2022-11-27T09:49:19.297Z,96188.38
2022-11-27T09:51:29.534Z,96184.84
2022-11-27T09:53:34.274Z,96176.13
2022-11-27T09:55:37.945Z,96173.56
2022-11-27T09:57:39.445Z,96183.94
2022-11-27T09:59:44.161Z,96169.41
2022-11-27T10:01:50.696Z,96173.19
2022-11-27T10:03:49.489Z,96161.06
2022-11-27T10:05:57.237Z,96158.16
2022-11-27T10:08:14.646Z,96160.06
2022-11-27T10:10:30.524Z,96158.16
2022-11-27T10:12:37.067Z,96157.59
2022-11-27T10:14:53.189Z,96152.25
2022-11-27T10:17:00.939Z,96154.06
2022-11-27T10:19:06.591Z,96155.19
2022-11-27T10:21:11.223Z,96150.91
2022-11-27T10:23:19.868Z,96138.78
2022-11-27T10:25:21.070Z,96140.22
2022-11-27T10:27:25.425Z,96132.34
2022-11-27T10:29:28.529Z,96128.16
2022-11-27T10:31:36.685Z,96126.25
2022-11-27T10:33:47.187Z,96124.81
2022-11-27T10:35:49.135Z,96112.50
2022-11-27T10:37:50.958Z,96112.63
2022-11-27T10:39:55.227Z,96110.25
2022-11-27T10:42:00.833Z,96112.09
2022-11-27T10:44:06.134Z,96115.81
2022-11-27T10:46:15.297Z,96116.28
2022-11-27T10:48:15.435Z,96111.75
2022-11-27T10:50:15.432Z,96114.19
2022-11-27T10:52:15.847Z,96105.50
2022-11-27T10:54:23.268Z,96110.41
2022-11-27T10:56:38.013Z,96095.63
2022-11-27T10:58:42.877Z,96097.50
2022-11-27T11:00:41.211Z,96100.94
2022-11-27T11:02:40.753Z,96098.75
2022-11-27T11:04:40.359Z,96101.22
2022-11-27T11:06:41.639Z,96097.31
2022-11-27T11:08:39.754Z,96092.91
2022-11-27T11:10:44.081Z,96091.59
2022-11-27T11:12:42.184Z,96086.13
2022-11-27T11:14:40.678Z,96089.06
2022-11-27T11:16:44.423Z,96087.31
2022-11-27T11:18:45.304Z,96092.09
2022-11-27T11:20:48.933Z,96079.28
2022-11-27T11:22:48.042Z,96082.56
2022-11-27T11:24:48.944Z,96075.63
2022-11-27T11:26:50.538Z,96072.69
2022-11-27T11:28:52.743Z,96067.25
2022-11-27T11:30:57.471Z,96065.31
2022-11-27T11:33:03.106Z,96059.28
2022-11-27T11:35:05.005Z,96060.72
2022-11-27T11:37:08.647Z,96059.69
2022-11-27T11:39:06.906Z,96051.13
2022-11-27T11:41:08.035Z,96050.03
2022-11-27T11:43:22.399Z,96048.72
2022-11-27T11:45:22.816Z,96040.47
2022-11-27T11:47:25.011Z,96047.16
2022-11-27T11:49:26.998Z,96042.72
2022-11-27T11:51:40.547Z,96048.19
2022-11-27T11:53:46.828Z,96040.97
2022-11-27T11:55:53.060Z,96040.78
2022-11-27T11:58:04.046Z,96035.75
2022-11-27T12:00:10.069Z,96038.59
2022-11-27T12:02:34.691Z,96039.09
2022-11-27T12:04:57.593Z,96030.81
2022-11-27T12:07:04.476Z,96038.13
2022-11-27T12:09:23.200Z,96033.59
2022-11-27T12:11:29.318Z,96040.00
2022-11-27T12:13:40.830Z,96025.69
2022-11-27T12:15:45.332Z,96014.59
2022-11-27T12:17:56.450Z,96025.94
2022-11-27T12:20:19.883Z,96020.44
2022-11-27T12:22:37.079Z,96023.19
2022-11-27T12:24:47.861Z,96013.53
2022-11-27T12:26:59.570Z,96015.47
2022-11-27T12:29:25.486Z,96020.25
2022-11-27T12:31:38.658Z,96013.84
2022-11-27T12:33:56.532Z,96019.41
2022-11-27T12:36:02.720Z,96014.88
2022-11-27T12:38:21.238Z,96015.56
2022-11-27T12:40:44.623Z,96007.91
2022-11-27T12:42:50.561Z,96014.69
2022-11-27T12:44:56.236Z,96003.69
2022-11-27T12:46:59.886Z,96005.88
2022-11-27T12:49:04.433Z,96001.75
2022-11-27T12:51:07.538Z,96001.38
2022-11-27T12:53:20.134Z,96007.06
2022-11-27T12:55:28.196Z,96006.59
2022-11-27T12:57:35.312Z,96001.88
2022-11-27T12:59:39.342Z,95999.28
2022-11-27T13:01:44.208Z,95999.19
2022-11-27T13:03:51.523Z,96003.31
2022-11-27T13:05:57.412Z,96005.75
2022-11-27T13:07:59.603Z,95998.38
2022-11-27T13:10:04.576Z,95990.22
2022-11-27T13:12:04.322Z,95990.31
2022-11-27T13:14:07.068Z,95992.16
2022-11-27T13:16:10.694Z,95997.00
2022-11-27T13:18:20.012Z,95991.28
2022-11-27T13:20:24.541Z,95990.41
2022-11-27T13:22:27.643Z,95991.44
2022-11-27T13:24:27.630Z,95990.75
2022-11-27T13:26:32.847Z,95989.94
2022-11-27T13:28:39.208Z,95984.72
2022-11-27T13:30:39.674Z,95981.16
2022-11-27T13:32:41.632Z,95977.72
2022-11-27T13:34:46.749Z,95975.13
2022-11-27T13:36:47.471Z,95981.06
2022-11-27T13:38:46.254Z,95975.03
2022-11-27T13:40:47.664Z,95975.28
2022-11-27T13:42:49.392Z,95973.44
2022-11-27T13:44:56.678Z,95977.63
2022-11-27T13:47:00.358Z,95976.78
2022-11-27T13:49:03.114Z,95974.19
2022-11-27T13:51:02.097Z,95972.50
2022-11-27T13:53:04.456Z,95978.47
2022-11-27T13:55:06.345Z,95981.06
2022-11-27T13:57:13.560Z,95976.03
2022-11-27T13:59:19.675Z,95978.66
2022-11-27T14:01:20.099Z,95985.59
2022-11-27T14:03:24.998Z,95984.94
2022-11-27T14:05:37.068Z,95984.19
2022-11-27T14:07:41.371Z,95988.41
2022-11-27T14:09:41.595Z,95992.59
2022-11-27T14:11:43.629Z,95987.38
2022-11-27T14:13:44.945Z,95981.41
2022-11-27T14:15:43.499Z,95982.31
2022-11-27T14:17:43.975Z,95986.00
2022-11-27T14:19:46.516Z,95988.63
2022-11-27T14:21:45.160Z,95987.25
2022-11-27T14:23:51.048Z,95991.56
2022-11-27T14:25:51.598Z,95988.03
2022-11-27T14:28:00.029Z,95989.13
2022-11-27T14:29:58.352Z,95987.25
2022-11-27T14:31:58.768Z,95982.97
2022-11-27T14:34:14.760Z,95986.50
2022-11-27T14:36:24.661Z,95983.13
2022-11-27T14:38:23.624Z,95991.72
2022-11-27T14:40:37.601Z,95985.00
2022-11-27T14:42:39.213Z,95990.09
2022-11-27T14:44:43.707Z,95993.66
2022-11-27T14:46:42.681Z,95995.47
2022-11-27T14:48:46.686Z,95993.72
2022-11-27T14:50:48.285Z,95994.09
2022-11-27T14:52:54.092Z,95987.59
2022-11-27T14:54:53.160Z,95984.47
2022-11-27T14:56:51.720Z,95988.84
2022-11-27T14:58:52.648Z,95985.34
2022-11-27T15:00:54.279Z,95990.00
2022-11-27T15:02:53.146Z,95986.66
2022-11-27T15:04:51.887Z,95987.13
2022-11-27T15:06:50.429Z,95988.28
2022-11-27T15:09:09.032Z,95981.63
2022-11-27T15:11:35.757Z,95980.00
2022-11-27T15:13:39.791Z,95983.47
2022-11-27T15:15:44.109Z,95981.78
2022-11-27T15:17:46.492Z,95986.91
2022-11-27T15:19:45.201Z,95980.00
2022-11-27T15:21:49.871Z,95986.97
2022-11-27T15:23:51.565Z,95990.66
2022-11-27T15:25:52.935Z,95989.00
2022-11-27T15:27:51.345Z,95991.75
2022-11-27T15:30:10.313Z,95983.94
2022-11-27T15:32:22.986Z,95994.50
2022-11-27T15:34:24.609Z,95992.97
2022-11-27T15:36:23.876Z,95989.44
2022-11-27T15:38:22.622Z,95984.47
2022-11-27T15:40:30.370Z,95993.22
2022-11-27T15:42:30.440Z,95988.22
2022-11-27T15:44:30.461Z,95996.38
2022-11-27T15:46:31.401Z,95985.56
2022-11-27T15:48:31.410Z,95990.22
2022-11-27T15:50:30.795Z,95984.53
2022-11-27T15:52:29.700Z,95982.59
2022-11-27T15:54:27.919Z,95982.84
2022-11-27T15:56:28.465Z,95986.00
2022-11-27T15:58:27.025Z,95991.09
2022-11-27T16:00:26.058Z,95984.31
2022-11-27T16:02:28.562Z,95975.94
2022-11-27T16:04:30.323Z,95984.50
2022-11-27T16:06:28.859Z,95988.88
2022-11-27T16:08:27.242Z,95985.19
2022-11-27T16:10:25.552Z,95982.78
2022-11-27T16:12:25.440Z,95980.19
2022-11-27T16:14:24.161Z,95980.94
2022-11-27T16:16:23.224Z,95988.22
2022-11-27T16:18:21.376Z,95991.13
2022-11-27T16:20:19.654Z,95982.25
2022-11-27T16:22:19.160Z,95988.69
2022-11-27T16:24:17.525Z,95982.84
2022-11-27T16:26:16.147Z,95989.91
2022-11-27T16:28:15.953Z,95980.63
2022-11-27T16:30:16.041Z,95988.38
2022-11-27T16:32:17.086Z,95988.28
2022-11-27T16:34:18.818Z,95987.47
2022-11-27T16:36:19.663Z,95995.94
2022-11-27T16:38:18.435Z,95984.28
2022-11-27T16:40:19.051Z,95989.25
2022-11-27T16:42:20.290Z,95986.19
2022-11-27T16:44:20.164Z,95993.50
2022-11-27T16:46:20.423Z,95982.94
2022-11-27T16:48:22.747Z,95980.13
2022-11-27T16:50:24.082Z,95987.09
2022-11-27T16:52:22.466Z,95982.13
2022-11-27T16:54:20.793Z,95981.41
2022-11-27T16:56:24.355Z,95984.25
2022-11-27T16:58:24.512Z,95984.00
2022-11-27T17:00:24.899Z,95978.03
2022-11-27T17:02:24.918Z,95980.81
2022-11-27T17:04:24.291Z,95978.16
2022-11-27T17:06:24.680Z,95986.72
2022-11-27T17:08:23.625Z,95986.19
2022-11-27T17:10:22.263Z,95979.50
2022-11-27T17:12:23.520Z,95983.88
2022-11-27T17:14:21.656Z,95974.22
2022-11-27T17:16:22.404Z,95978.59
2022-11-27T17:18:23.934Z,95977.28
2022-11-27T17:20:23.679Z,95982.91
2022-11-27T17:22:26.863Z,95976.63
2022-11-27T17:24:26.360Z,95975.09
2022-11-27T17:26:28.359Z,95969.59
2022-11-27T17:28:27.876Z,95977.28
2022-11-27T17:30:26.614Z,95980.16
2022-11-27T17:32:27.019Z,95977.78
2022-11-27T17:34:25.452Z,95968.81
2022-11-27T17:36:24.662Z,95962.03
2022-11-27T17:38:23.198Z,95971.59
2022-11-27T17:40:21.598Z,95967.59
2022-11-27T17:42:22.889Z,95964.34
2022-11-27T17:44:21.709Z,95963.88
2022-11-27T17:46:28.190Z,95967.69
2022-11-27T17:48:28.042Z,95968.50
2022-11-27T17:50:26.258Z,95963.66
2022-11-27T17:52:24.904Z,95970.63
2022-11-27T17:54:23.541Z,95964.59
2022-11-27T17:56:24.525Z,95975.00
2022-11-27T17:58:23.337Z,95972.59
2022-11-27T18:00:22.737Z,95964.72
2022-11-27T18:02:21.151Z,95966.53
2022-11-27T18:04:21.141Z,95969.16
2022-11-27T18:06:26.283Z,95957.84
2022-11-27T18:08:25.140Z,95966.53
2022-11-27T18:10:23.571Z,95965.97
2022-11-27T18:12:23.126Z,95972.88
2022-11-27T18:14:21.337Z,95954.59
2022-11-27T18:16:21.976Z,95962.97
2022-11-27T18:18:20.304Z,95964.03
2022-11-27T18:20:20.152Z,95964.72
2022-11-27T18:22:19.445Z,95964.72
2022-11-27T18:24:25.338Z,95973.16
2022-11-27T18:26:45.396Z,95964.59
2022-11-27T18:28:44.461Z,95971.03
2022-11-27T18:30:42.728Z,95965.97
2022-11-27T18:32:41.224Z,95974.00
2022-11-27T18:34:39.516Z,95964.56
2022-11-27T18:36:39.093Z,95957.81
2022-11-27T18:38:39.796Z,95955.31
2022-11-27T18:40:41.465Z,95961.47
2022-11-27T18:42:39.889Z,95959.66
2022-11-27T18:44:44.480Z,95952.75
2022-11-27T18:46:43.954Z,95964.03
2022-11-27T18:48:43.523Z,95955.44
2022-11-27T18:50:41.769Z,95960.78
2022-11-27T18:52:41.386Z,95954.03
2022-11-27T18:54:39.606Z,95965.25
2022-11-27T18:56:38.707Z,95966.06
2022-11-27T18:58:37.852Z,95956.50
2022-11-27T19:00:41.888Z,95963.38
2022-11-27T19:02:41.068Z,95962.75
2022-11-27T19:04:39.697Z,95950.63
2022-11-27T19:06:39.182Z,95964.56
2022-11-27T19:08:39.749Z,95956.25
2022-11-27T19:10:38.420Z,95963.34
2022-11-27T19:12:37.081Z,95961.59
2022-11-27T19:14:35.894Z,95958.38
2022-11-27T19:16:42.155Z,95958.22
2022-11-27T19:18:43.302Z,95959.22
2022-11-27T19:20:44.304Z,95958.38
2022-11-27T19:22:42.796Z,95956.88
2022-11-27T19:24:42.781Z,95957.72
2022-11-27T19:26:45.938Z,95956.81
2022-11-27T19:28:46.059Z,95959.22
2022-11-27T19:30:47.902Z,95950.69
2022-11-27T19:32:46.377Z,95954.28
2022-11-27T19:34:44.897Z,95954.13
2022-11-27T19:36:43.719Z,95951.63
2022-11-27T19:38:43.802Z,95963.28
2022-11-27T19:40:43.454Z,95959.50
2022-11-27T19:42:41.831Z,95949.53
2022-11-27T19:44:40.555Z,95957.94
2022-11-27T19:46:40.050Z,95956.50
2022-11-27T19:48:43.298Z,95949.97
2022-11-27T19:50:42.245Z,95946.38
2022-11-27T19:52:40.856Z,95956.00
2022-11-27T19:54:39.573Z,95958.16
2022-11-27T19:56:40.401Z,95956.84
2022-11-27T19:58:41.225Z,95955.44
2022-11-27T20:00:39.686Z,95952.25
2022-11-27T20:02:38.538Z,95953.44
2022-11-27T20:04:36.861Z,95948.94
2022-11-27T20:06:35.500Z,95947.44
2022-11-27T20:08:34.397Z,95948.50
2022-11-27T20:10:32.561Z,95954.81
2022-11-27T20:12:36.385Z,95946.31
2022-11-27T20:14:34.578Z,95955.06
2022-11-27T20:16:33.661Z,95951.75
2022-11-27T20:18:31.922Z,95948.78
2022-11-27T20:20:34.111Z,95955.53
2022-11-27T20:22:34.089Z,95956.84
2022-11-27T20:24:32.973Z,95945.78
2022-11-27T20:26:31.123Z,95951.75
2022-11-27T20:28:32.160Z,95942.16
2022-11-27T20:30:31.027Z,95946.34
2022-11-27T20:32:32.262Z,95950.09
2022-11-27T20:34:32.167Z,95949.41
2022-11-27T20:36:31.741Z,95945.06
2022-11-27T20:38:30.327Z,95933.91
2022-11-27T20:40:29.296Z,95944.09
2022-11-27T20:42:28.473Z,95946.78
2022-11-27T20:44:28.090Z,95939.94
2022-11-27T20:46:27.480Z,95933.03
2022-11-27T20:48:26.006Z,95936.03
2022-11-27T20:50:24.415Z,95938.91
2022-11-27T20:52:22.605Z,95940.53
2022-11-27T20:54:21.208Z,95934.75
2022-11-27T20:56:21.596Z,95935.00
2022-11-27T20:58:25.836Z,95940.78
2022-11-27T21:00:27.068Z,95934.28
2022-11-27T21:02:25.521Z,95934.50
2022-11-27T21:04:26.271Z,95933.91
2022-11-27T21:06:27.937Z,95934.97
2022-11-27T21:08:26.199Z,95932.22
2022-11-27T21:10:28.516Z,95934.00
2022-11-27T21:12:27.438Z,95926.25
2022-11-27T21:14:25.701Z,95926.41
2022-11-27T21:16:30.467Z,95928.13
2022-11-27T21:18:28.565Z,95922.94
2022-11-27T21:20:27.234Z,95919.59
2022-11-27T21:22:28.445Z,95922.19
2022-11-27T21:24:28.561Z,95925.63
2022-11-27T21:26:27.978Z,95918.63
2022-11-27T21:28:29.255Z,95919.34
2022-11-27T21:30:27.674Z,95916.66
2022-11-27T21:32:29.242Z,95918.63
2022-11-27T21:34:29.897Z,95911.53
2022-11-27T21:36:33.694Z,95919.16
2022-11-27T21:38:32.705Z,95918.41
2022-11-27T21:40:34.690Z,95920.28
2022-11-27T21:42:33.306Z,95909.31
2022-11-27T21:44:34.680Z,95920.88
2022-11-27T21:46:33.665Z,95917.47
2022-11-27T21:48:38.898Z,95914.88
2022-11-27T21:50:37.219Z,95909.84
2022-11-27T21:52:37.005Z,95917.75
2022-11-27T21:54:41.028Z,95908.41
2022-11-27T21:56:43.616Z,95906.97
2022-11-27T21:58:45.472Z,95912.09
2022-11-27T22:00:46.384Z,95915.53
2022-11-27T22:02:45.155Z,95909.56
2022-11-27T22:04:44.992Z,95907.09
2022-11-27T22:06:47.146Z,95907.41
2022-11-27T22:08:49.580Z,95901.63
2022-11-27T22:10:48.160Z,95898.00
2022-11-27T22:12:58.338Z,95906.44
2022-11-27T22:14:58.594Z,95896.06
2022-11-27T22:16:59.633Z,95895.34
2022-11-27T22:18:59.763Z,95895.28
2022-11-27T22:21:04.636Z,95899.69
2022-11-27T22:23:02.789Z,95892.03
2022-11-27T22:25:04.287Z,95892.28
2022-11-27T22:27:04.740Z,95892.22
2022-11-27T22:29:05.507Z,95881.19
2022-11-27T22:31:11.693Z,95887.22
2022-11-27T22:33:19.741Z,95879.50
2022-11-27T22:35:18.539Z,95881.13
2022-11-27T22:37:20.762Z,95875.00
2022-11-27T22:39:19.141Z,95873.22
2022-11-27T22:41:21.635Z,95874.78
2022-11-27T22:43:19.917Z,95872.25
2022-11-27T22:45:18.711Z,95870.63
2022-11-27T22:47:18.734Z,95863.59
2022-11-27T22:49:21.719Z,95869.72
2022-11-27T22:51:22.819Z,95865.34
2022-11-27T22:53:22.900Z,95862.84
2022-11-27T22:55:25.299Z,95874.13
2022-11-27T22:57:23.575Z,95868.09
2022-11-27T22:59:32.306Z,95868.78
2022-11-27T23:01:36.241Z,95872.25
2022-11-27T23:03:34.814Z,95873.97
2022-11-27T23:05:38.554Z,95863.69
2022-11-27T23:07:39.240Z,95872.38
2022-11-27T23:09:39.429Z,95861.34
2022-11-27T23:11:37.698Z,95870.94
2022-11-27T23:13:35.807Z,95860.56
2022-11-27T23:15:34.865Z,95863.94
2022-11-27T23:17:33.089Z,95854.16
2022-11-27T23:19:31.407Z,95861.88
2022-11-27T23:21:30.531Z,95855.81
2022-11-27T23:23:28.635Z,95865.44
2022-11-27T23:25:31.023Z,95862.13
2022-11-27T23:27:30.176Z,95861.34
2022-11-27T23:29:28.642Z,95862.19
2022-11-27T23:31:30.803Z,95860.56
2022-11-27T23:33:32.656Z,95857.13
2022-11-27T23:35:31.165Z,95863.28
2022-11-27T23:37:31.345Z,95859.06
2022-11-27T23:39:29.648Z,95856.56
2022-11-27T23:41:29.652Z,95851.47
2022-11-27T23:43:27.856Z,95852.50
2022-11-27T23:45:26.162Z,95857.81
2022-11-27T23:47:24.449Z,95860.84
2022-11-27T23:49:23.813Z,95853.28